Jasper, Illinois
Current Conditions -  °F | °C
As of 10:15 AM on Sunday 25 Jan 2015 (Local Time) from KFWC Reporting Station
Drizzle Drizzle  
Wind Chill: 41°   Ceiling: 3500
Heat Index: 41°   Visibility: 7mi
Dew Point: 39°   Wind: 3mph
Humidity: 92%   Direction: 170°S
Pressure: 29.62"   Gusts: NA
Location:  38.3669°N, 88.3516°W
Report Text: KFWC 251615Z AUTO 17003KT 7SM -DZ OVC035 05/04 A2962 RMK AO1 T00520040
Loading
Personal Weather Stations






























Interactive Weather Map New forecast layout! Learn more

10-Day Weather Forecast

Advertisements
Track Severe Weather on mobile